Time;durP1;ratioP1;P1;durP2;ratioP2;P2;SDS_P1;SDS_P2;PMS_P1;PMS_P2;Temp;Humidity;BMP_temperature;BMP_pressure;BME280_temperature;BME280_humidity;BME280_pressure;Samples;Min_cycle;Max_cycle;Signal;HPM_P1;HPM_P2
2023/09/24 00:01:28;;;;;;;1.27;0.75;;;;;;;19.75;73.01;94392.09;5076543;28;20202;-75
2023/09/24 00:03:54;;;;;;;0.50;0.50;;;;;;;19.61;73.37;94409.34;5070206;28;20252;-75
2023/09/24 00:06:22;;;;;;;7.47;0.77;;;;;;;19.63;73.77;94415.25;5069540;28;20222;-75
2023/09/24 00:08:49;;;;;;;0.20;0.20;;;;;;;19.47;73.97;94398.31;5069805;28;20270;-76
2023/09/24 00:11:16;;;;;;;0.85;0.60;;;;;;;19.45;73.71;94397.91;5069494;28;20278;-75
2023/09/24 00:13:43;;;;;;;0.35;0.35;;;;;;;19.64;71.66;94405.84;5070102;28;20207;-76
2023/09/24 00:16:11;;;;;;;1.30;0.80;;;;;;;19.60;71.88;94396.78;5069383;28;20233;-76
2023/09/24 00:18:39;;;;;;;0.35;0.35;;;;;;;19.53;71.71;94396.78;5057297;28;20604;-75
2023/09/24 00:21:07;;;;;;;0.20;0.20;;;;;;;19.60;72.58;94394.03;5069586;28;20543;-76
2023/09/24 00:23:33;;;;;;;0.30;0.30;;;;;;;19.58;71.64;94404.63;5069824;28;20300;-76
2023/09/24 00:26:00;;;;;;;2.13;1.17;;;;;;;19.58;72.65;94412.88;5069242;28;20203;-75
2023/09/24 00:28:27;;;;;;;0.55;0.55;;;;;;;19.57;72.48;94400.31;5069709;28;20363;-76
2023/09/24 00:30:54;;;;;;;0.75;0.50;;;;;;;19.58;72.67;94410.13;5069398;28;20218;-75
2023/09/24 00:33:21;;;;;;;0.40;0.40;;;;;;;19.54;72.87;94403.88;5069363;28;20218;-76
2023/09/24 00:35:49;;;;;;;4.63;0.63;;;;;;;19.60;71.58;94412.50;5069248;28;20222;-76
2023/09/24 00:38:16;;;;;;;0.52;0.50;;;;;;;19.59;72.12;94411.69;5069666;28;20210;-75
2023/09/24 00:40:43;;;;;;;0.30;0.30;;;;;;;19.59;72.83;94422.69;5069340;28;20260;-76
2023/09/24 00:43:27;;;;;;;3.90;3.10;;;;;;;19.55;72.84;94421.09;5070025;28;20215;-75
2023/09/24 00:45:54;;;;;;;0.20;0.20;;;;;;;19.08;73.77;94426.44;5069089;28;20211;-75
2023/09/24 00:48:23;;;;;;;0.30;0.30;;;;;;;19.07;73.40;94430.38;5069205;28;20301;-76
2023/09/24 00:50:51;;;;;;;17.98;1.13;;;;;;;19.11;73.32;94420.19;5069383;28;20214;-75
2023/09/24 00:53:18;;;;;;;4.60;0.77;;;;;;;19.25;73.49;94418.66;5069587;28;20552;-75
2023/09/24 00:55:45;;;;;;;1.40;1.10;;;;;;;19.40;73.43;94403.81;5069519;28;20594;-76
2023/09/24 00:58:12;;;;;;;1.33;1.00;;;;;;;19.40;74.14;94409.28;5070139;28;20716;-73
2023/09/24 01:00:39;;;;;;;4.43;0.50;;;;;;;19.25;75.24;94408.47;5069538;28;20237;-74
2023/09/24 01:03:09;;;;;;;0.77;0.77;;;;;;;19.21;74.64;94402.16;5077255;28;20635;-76
2023/09/24 01:05:35;;;;;;;0.50;0.45;;;;;;;19.13;75.67;94401.34;5069440;28;20663;-76
2023/09/24 01:08:05;;;;;;;1.75;0.43;;;;;;;19.06;75.20;94398.59;5067794;28;20250;-74
2023/09/24 01:10:32;;;;;;;0.88;0.70;;;;;;;19.10;76.00;94396.66;5068672;28;20246;-77
2023/09/24 01:13:00;;;;;;;0.85;0.85;;;;;;;18.98;76.13;94394.25;5069080;28;20249;-76
2023/09/24 01:15:28;;;;;;;0.60;0.60;;;;;;;18.96;76.17;94395.81;5057244;28;20218;-75
2023/09/24 01:17:55;;;;;;;1.25;0.73;;;;;;;18.92;76.65;94395.78;5073198;28;20350;-75
2023/09/24 01:20:24;;;;;;;1.08;0.98;;;;;;;18.88;76.53;94394.97;5073197;28;20261;-75
2023/09/24 01:22:53;;;;;;;0.75;0.70;;;;;;;18.91;76.68;94388.72;5073026;28;20215;-75
2023/09/24 01:25:20;;;;;;;0.63;0.57;;;;;;;18.80;77.79;94387.91;5073010;28;20207;-76
2023/09/24 01:27:48;;;;;;;0.22;0.22;;;;;;;18.84;78.33;94387.91;5073262;28;20207;-74
2023/09/24 01:30:15;;;;;;;0.65;0.65;;;;;;;18.76;78.60;94381.59;5072355;28;20262;-74
2023/09/24 01:32:42;;;;;;;0.40;0.30;;;;;;;18.75;79.91;94371.78;5072940;28;20261;-74
2023/09/24 01:35:10;;;;;;;2.22;1.30;;;;;;;18.68;80.86;94374.53;5072799;28;20245;-74
2023/09/24 01:37:38;;;;;;;0.40;0.40;;;;;;;18.71;81.13;94371.00;5072415;28;20211;-74
2023/09/24 01:40:18;;;;;;;0.25;0.25;;;;;;;18.64;79.84;94373.72;5072806;28;20214;-74
2023/09/24 01:42:47;;;;;;;0.50;0.50;;;;;;;18.57;80.33;94376.41;5072034;28;20297;-76
2023/09/24 01:45:15;;;;;;;3.95;1.75;;;;;;;18.51;80.73;94372.44;5072658;28;20523;-75
2023/09/24 01:47:44;;;;;;;1.95;0.57;;;;;;;18.51;80.69;94373.22;5072426;28;20279;-75
2023/09/24 01:50:12;;;;;;;0.70;0.60;;;;;;;18.53;80.95;94370.09;5072188;28;20235;-75
2023/09/24 01:52:38;;;;;;;0.20;0.20;;;;;;;18.63;81.75;94366.66;5072397;28;20314;-75
2023/09/24 01:55:07;;;;;;;0.20;0.20;;;;;;;18.63;81.36;94370.19;5072335;28;20211;-75
2023/09/24 01:57:34;;;;;;;0.20;0.20;;;;;;;18.51;81.82;94369.69;5058927;28;20264;-75
2023/09/24 02:00:06;;;;;;;1.15;0.60;;;;;;;18.39;82.23;94368.84;5071916;28;20211;-75
2023/09/24 02:02:34;;;;;;;0.35;0.35;;;;;;;18.33;81.94;94364.09;5080419;28;20623;-75
2023/09/24 02:05:01;;;;;;;0.30;0.30;;;;;;;18.26;82.38;94370.34;5072113;28;20210;-75
2023/09/24 02:07:28;;;;;;;0.20;0.20;;;;;;;18.25;82.24;94366.03;5072969;28;20566;-75
2023/09/24 02:09:54;;;;;;;0.28;0.28;;;;;;;18.27;82.43;94354.69;5072492;28;20231;-75
2023/09/24 02:12:23;;;;;;;0.63;0.63;;;;;;;18.32;82.78;94363.31;5072466;28;20206;-75
2023/09/24 02:14:50;;;;;;;0.32;0.17;;;;;;;18.33;82.30;94364.88;5072176;28;20240;-74
2023/09/24 02:17:16;;;;;;;0.20;0.20;;;;;;;18.34;83.45;94365.69;5072547;28;20241;-75
2023/09/24 02:19:44;;;;;;;0.88;0.88;;;;;;;18.31;83.09;94372.72;5072422;28;20597;-75
2023/09/24 02:22:11;;;;;;;1.27;0.88;;;;;;;18.29;83.17;94361.34;5072413;28;20261;-75
2023/09/24 02:24:40;;;;;;;2.38;0.60;;;;;;;18.25;82.90;94363.28;5072363;28;20207;-76
2023/09/24 02:27:07;;;;;;;0.57;0.57;;;;;;;18.22;82.52;94371.47;5071777;28;20322;-75
2023/09/24 02:29:35;;;;;;;0.43;0.43;;;;;;;18.24;81.82;94369.94;5072263;28;20226;-75
2023/09/24 02:32:02;;;;;;;1.55;1.40;;;;;;;18.17;82.00;94367.16;5072258;28;20325;-75
2023/09/24 02:34:29;;;;;;;0.40;0.40;;;;;;;18.21;81.81;94370.69;5071930;28;20210;-75
2023/09/24 02:36:56;;;;;;;0.40;0.40;;;;;;;18.09;82.70;94360.03;5071730;28;20214;-75
2023/09/24 02:39:23;;;;;;;0.30;0.20;;;;;;;18.12;82.54;94359.28;5072184;28;20207;-75
2023/09/24 02:41:50;;;;;;;0.32;0.32;;;;;;;18.09;82.69;94360.81;5071371;28;20309;-75
2023/09/24 02:44:18;;;;;;;1.13;0.85;;;;;;;18.15;82.96;94365.97;5071970;28;20241;-75
2023/09/24 02:46:46;;;;;;;0.50;0.50;;;;;;;18.21;83.05;94367.94;5072102;28;20242;-75
2023/09/24 02:49:14;;;;;;;1.55;0.82;;;;;;;18.20;83.77;94371.84;5071755;28;20237;-75
2023/09/24 02:51:40;;;;;;;0.85;0.85;;;;;;;17.73;85.34;94375.44;5071186;28;20202;-75
2023/09/24 02:54:08;;;;;;;1.45;1.13;;;;;;;17.46;85.80;94377.53;5071661;28;20647;-75
2023/09/24 02:56:34;;;;;;;1.17;0.40;;;;;;;17.63;85.00;94376.91;5071853;28;20214;-75
2023/09/24 02:59:02;;;;;;;0.30;0.30;;;;;;;17.67;85.15;94377.72;5071542;28;20211;-75
2023/09/24 03:01:29;;;;;;;0.30;0.30;;;;;;;17.82;84.56;94377.84;5078630;28;20214;-75
2023/09/24 03:03:59;;;;;;;1.70;1.02;;;;;;;17.87;84.84;94369.28;5072330;28;20211;-75
2023/09/24 03:06:26;;;;;;;0.28;0.28;;;;;;;17.86;85.28;94375.94;5071215;28;20302;-75
2023/09/24 03:08:53;;;;;;;0.57;0.57;;;;;;;17.99;84.93;94371.72;5071658;28;20637;-75
2023/09/24 03:11:20;;;;;;;0.20;0.20;;;;;;;18.04;84.81;94368.63;5071364;28;20238;-75
2023/09/24 03:13:47;;;;;;;3.72;0.85;;;;;;;17.93;85.15;94368.53;5071401;28;20203;-75
2023/09/24 03:16:13;;;;;;;1.50;1.05;;;;;;;17.63;86.44;94376.91;5071524;28;20223;-75
2023/09/24 03:18:40;;;;;;;1.00;0.35;;;;;;;17.61;87.05;94379.22;5071460;28;20215;-75
2023/09/24 03:21:13;;;;;;;4.57;0.80;;;;;;;17.73;86.70;94378.97;5070865;28;20261;-75
2023/09/24 03:23:39;;;;;;;1.98;0.75;;;;;;;17.75;86.93;94382.13;5071009;28;20281;-76
2023/09/24 03:26:08;;;;;;;0.73;0.73;;;;;;;17.86;86.42;94378.69;5071027;28;20694;-75
2023/09/24 03:28:35;;;;;;;0.28;0.28;;;;;;;18.15;85.23;94374.19;5071370;28;20642;-75
2023/09/24 03:31:02;;;;;;;0.45;0.45;;;;;;;18.14;85.08;94383.59;5070692;28;20233;-75
2023/09/24 03:33:29;;;;;;;0.40;0.40;;;;;;;18.11;84.81;94385.13;5071273;28;20305;-76
2023/09/24 03:35:56;;;;;;;0.52;0.52;;;;;;;17.92;85.30;94388.09;5070303;28;20202;-75
2023/09/24 03:38:24;;;;;;;0.22;0.22;;;;;;;17.99;84.53;94399.13;5070198;28;20214;-75
2023/09/24 03:40:50;;;;;;;1.83;0.95;;;;;;;17.98;84.46;94386.59;5070514;28;20276;-75
2023/09/24 03:43:17;;;;;;;0.20;0.20;;;;;;;17.97;84.74;94382.28;5070720;28;20260;-74
2023/09/24 03:45:44;;;;;;;0.65;0.65;;;;;;;17.78;85.83;94380.56;5070713;28;20222;-75
2023/09/24 03:48:11;;;;;;;0.35;0.35;;;;;;;17.90;86.16;94380.28;5070905;28;20199;-75
2023/09/24 03:50:39;;;;;;;1.80;1.38;;;;;;;18.00;85.39;94396.03;5070424;28;20313;-75
2023/09/24 03:53:06;;;;;;;0.68;0.68;;;;;;;17.93;85.69;94395.94;5070742;28;20658;-74
2023/09/24 03:55:35;;;;;;;1.23;0.82;;;;;;;17.92;85.80;94393.59;5070489;28;20218;-74
2023/09/24 03:58:02;;;;;;;0.73;0.63;;;;;;;17.90;85.86;94395.94;5070497;28;20261;-75
2023/09/24 04:00:31;;;;;;;4.55;1.08;;;;;;;17.90;86.72;94398.69;5070522;28;20210;-76
2023/09/24 04:02:57;;;;;;;0.55;0.55;;;;;;;17.86;87.11;94392.38;5078433;28;20593;-74
2023/09/24 04:05:24;;;;;;;0.70;0.70;;;;;;;17.80;87.38;94396.63;5070680;28;20576;-76
2023/09/24 04:07:53;;;;;;;1.55;1.45;;;;;;;17.81;88.19;94398.19;5070622;28;20570;-76
2023/09/24 04:10:21;;;;;;;0.20;0.20;;;;;;;17.68;88.32;94412.19;5070460;28;20245;-76
2023/09/24 04:12:50;;;;;;;0.30;0.30;;;;;;;17.53;88.75;94399.50;5070379;28;20299;-76
2023/09/24 04:15:19;;;;;;;1.85;1.42;;;;;;;17.51;88.51;94390.84;5070745;28;20365;-75
2023/09/24 04:17:46;;;;;;;0.25;0.25;;;;;;;17.50;88.63;94413.94;5070492;28;20309;-76
2023/09/24 04:20:15;;;;;;;2.25;1.58;;;;;;;17.50;89.13;94419.41;5070188;28;20294;-76
2023/09/24 04:22:42;;;;;;;0.50;0.50;;;;;;;17.60;89.50;94429.72;5070459;28;20320;-76
2023/09/24 04:25:09;;;;;;;1.08;0.93;;;;;;;17.56;89.56;94439.81;5069939;28;20207;-76
2023/09/24 04:27:38;;;;;;;0.20;0.20;;;;;;;17.35;91.17;94456.06;5070392;28;20214;-76
2023/09/24 04:30:11;;;;;;;3.30;1.05;;;;;;;17.39;91.03;94456.84;5056840;28;20223;-77
2023/09/24 04:32:38;;;;;;;1.80;1.15;;;;;;;17.37;90.48;94459.19;5070330;28;20287;-76
2023/09/24 04:35:06;;;;;;;2.03;1.42;;;;;;;17.43;89.19;94465.91;5070275;28;20210;-76
2023/09/24 04:37:33;;;;;;;2.72;2.17;;;;;;;17.56;88.63;94480.91;5070427;28;20567;-76
2023/09/24 04:40:00;;;;;;;6.38;0.70;;;;;;;17.77;87.32;94475.66;5070511;28;20512;-76
2023/09/24 04:42:26;;;;;;;2.08;0.85;;;;;;;17.99;85.56;94475.88;5069901;28;20579;-76
2023/09/24 04:44:53;;;;;;;0.60;0.60;;;;;;;18.16;84.91;94469.78;5067585;28;20195;-74
2023/09/24 04:47:21;;;;;;;0.20;0.20;;;;;;;18.39;83.94;94477.78;5071108;28;20234;-75
2023/09/24 04:49:48;;;;;;;1.38;0.90;;;;;;;18.73;82.55;94464.69;5077429;28;20229;-76
2023/09/24 04:52:15;;;;;;;4.65;0.68;;;;;;;19.07;81.71;94468.81;5074641;28;20206;-76
2023/09/24 04:54:42;;;;;;;0.52;0.52;;;;;;;19.59;78.34;94454.88;5074177;28;20647;-76
2023/09/24 04:57:09;;;;;;;1.02;0.90;;;;;;;19.95;77.69;94464.00;5072637;28;20206;-76
2023/09/24 04:59:36;;;;;;;0.50;0.38;;;;;;;20.02;76.13;94466.75;5073883;28;20225;-76
2023/09/24 05:02:03;;;;;;;6.30;0.93;;;;;;;20.33;74.84;94459.69;5078479;28;20211;-76
2023/09/24 05:04:32;;;;;;;1.63;1.17;;;;;;;20.71;73.82;94460.84;5073673;28;20268;-76
2023/09/24 05:06:59;;;;;;;1.38;0.80;;;;;;;21.19;71.67;94461.13;5071037;28;20207;-76
2023/09/24 05:09:26;;;;;;;1.85;0.95;;;;;;;21.69;69.27;94455.41;5066300;28;20579;-76
2023/09/24 05:11:52;;;;;;;0.30;0.30;;;;;;;22.02;68.80;94452.06;5073231;28;20567;-76
2023/09/24 05:14:20;;;;;;;3.67;0.80;;;;;;;22.21;67.18;94456.25;5073880;28;20590;-76
2023/09/24 05:16:47;;;;;;;2.20;1.58;;;;;;;22.04;67.21;94449.69;5073516;28;20226;-75
2023/09/24 05:19:14;;;;;;;4.88;1.80;;;;;;;22.07;67.47;94448.09;5073476;28;20203;-75
2023/09/24 05:21:42;;;;;;;1.15;1.05;;;;;;;22.02;67.39;94445.75;5073387;28;20202;-76
2023/09/24 05:24:09;;;;;;;3.05;1.70;;;;;;;22.43;66.60;94452.13;5073475;28;20199;-76
2023/09/24 05:26:37;;;;;;;3.63;1.48;;;;;;;22.74;66.29;94452.25;5073305;28;20332;-75
2023/09/24 05:29:04;;;;;;;1.85;1.42;;;;;;;23.42;63.84;94452.31;5073274;28;20210;-76
2023/09/24 05:31:31;;;;;;;0.93;0.55;;;;;;;23.74;62.63;94453.50;5073291;28;20223;-76
2023/09/24 05:33:58;;;;;;;2.80;1.75;;;;;;;23.72;60.79;94449.56;5073246;28;20211;-77
2023/09/24 05:36:25;;;;;;;0.50;0.50;;;;;;;23.63;61.36;94463.16;5073579;28;20607;-76
2023/09/24 05:38:53;;;;;;;3.38;2.08;;;;;;;23.79;61.52;94468.03;5074124;28;20195;-77
2023/09/24 05:41:20;;;;;;;4.22;0.68;;;;;;;24.35;59.18;94464.47;5060356;28;20207;-76
2023/09/24 05:43:47;;;;;;;0.60;0.60;;;;;;;24.45;58.41;94457.22;5073153;28;20256;-76
2023/09/24 05:46:14;;;;;;;3.10;1.35;;;;;;;25.43;55.70;94458.59;5073158;28;20632;-74
2023/09/24 05:48:42;;;;;;;1.75;1.30;;;;;;;25.20;55.58;94456.69;5072897;28;20294;-77
2023/09/24 05:51:09;;;;;;;2.33;1.45;;;;;;;25.85;54.02;94459.72;5073082;28;20278;-75
2023/09/24 05:53:35;;;;;;;2.63;1.95;;;;;;;26.89;53.00;94462.44;5072560;28;20213;-76
2023/09/24 05:56:04;;;;;;;3.55;1.58;;;;;;;26.36;52.48;94455.44;5069258;28;20204;-75
2023/09/24 05:58:31;;;;;;;2.80;1.73;;;;;;;26.48;52.44;94470.63;5067605;28;20203;-76
2023/09/24 06:00:58;;;;;;;3.47;1.77;;;;;;;26.92;50.96;94467.13;5069178;28;20207;-75
2023/09/24 06:03:26;;;;;;;3.22;1.58;;;;;;;26.62;51.87;94475.84;5078124;28;20203;-75
2023/09/24 06:05:53;;;;;;;3.25;1.52;;;;;;;26.59;51.62;94462.81;5072328;28;20207;-77
2023/09/24 06:08:20;;;;;;;4.03;1.63;;;;;;;25.69;53.41;94468.03;5072530;28;20214;-76
2023/09/24 06:10:47;;;;;;;4.85;1.23;;;;;;;26.82;51.71;94482.06;5072340;28;20309;-75
2023/09/24 06:13:16;;;;;;;2.33;1.30;;;;;;;27.63;49.13;94466.44;5072925;28;20506;-76
2023/09/24 06:15:43;;;;;;;1.90;1.52;;;;;;;27.75;48.47;94471.28;5072596;28;20575;-77
2023/09/24 06:18:10;;;;;;;1.80;1.58;;;;;;;27.18;50.26;94473.63;5071231;28;20291;-78
2023/09/24 06:20:43;;;;;;;2.47;1.20;;;;;;;27.32;49.45;94469.69;5070882;28;20203;-75
2023/09/24 06:23:10;;;;;;;2.63;1.58;;;;;;;28.57;46.96;94458.41;5072319;28;20218;-78
2023/09/24 06:25:37;;;;;;;2.90;2.20;;;;;;;28.83;47.29;94460.00;5072149;28;20202;-79
2023/09/24 06:28:09;;;;;;;4.95;1.70;;;;;;;28.15;47.27;94461.31;5072428;28;20199;-75
2023/09/24 06:30:38;;;;;;;1.73;1.33;;;;;;;28.20;47.54;94457.22;5072346;28;20310;-74
2023/09/24 06:33:08;;;;;;;3.03;1.45;;;;;;;28.77;46.91;94450.59;5072112;28;20217;-75
2023/09/24 06:35:37;;;;;;;5.03;1.70;;;;;;;28.84;46.41;94457.97;5072459;28;20203;-76
2023/09/24 06:38:04;;;;;;;3.38;0.90;;;;;;;29.02;45.71;94465.72;5074039;28;20454;-77
2023/09/24 06:40:31;;;;;;;2.05;1.35;;;;;;;28.62;46.95;94455.06;5079268;28;20215;-74
2023/09/24 06:42:58;;;;;;;1.95;1.20;;;;;;;28.50;46.82;94458.66;5071649;28;20257;-76
2023/09/24 06:45:25;;;;;;;1.70;1.35;;;;;;;29.44;45.90;94458.69;5071974;28;20223;-76
2023/09/24 06:47:53;;;;;;;1.42;1.27;;;;;;;29.26;45.02;94458.50;5072150;28;20571;-75
2023/09/24 06:50:20;;;;;;;2.20;1.58;;;;;;;28.96;45.50;94468.31;5056306;28;20303;-77
2023/09/24 06:52:47;;;;;;;2.67;2.15;;;;;;;28.04;46.68;94463.63;5054404;28;20199;-77
2023/09/24 06:55:14;;;;;;;2.85;1.88;;;;;;;28.37;46.68;94460.69;5071579;28;20199;-76
2023/09/24 06:57:41;;;;;;;3.00;1.63;;;;;;;28.98;46.57;94472.19;5071986;28;20206;-76
2023/09/24 07:00:09;;;;;;;1.67;1.20;;;;;;;29.36;46.22;94454.56;5070959;28;20598;-75
2023/09/24 07:02:36;;;;;;;1.75;1.35;;;;;;;27.87;49.44;94459.41;5074084;28;20213;-75
2023/09/24 07:05:07;;;;;;;2.28;1.75;;;;;;;28.42;46.50;94462.91;5071470;28;20206;-76
2023/09/24 07:07:33;;;;;;;5.43;1.80;;;;;;;28.24;46.77;94464.25;5071238;28;20298;-75
2023/09/24 07:10:01;;;;;;;1.77;1.35;;;;;;;27.47;48.38;94462.47;5070437;28;20242;-75
2023/09/24 07:12:28;;;;;;;3.95;2.03;;;;;;;26.18;51.67;94469.69;5068798;28;20223;-76
2023/09/24 07:14:55;;;;;;;1.25;1.10;;;;;;;25.61;53.88;94466.56;5069621;28;20690;-75
2023/09/24 07:17:22;;;;;;;2.03;1.30;;;;;;;25.38;54.15;94478.53;5071356;28;20210;-76
2023/09/24 07:19:49;;;;;;;3.40;2.15;;;;;;;25.04;56.12;94468.47;5071356;28;20198;-75
2023/09/24 07:22:24;;;;;;;2.92;1.63;;;;;;;25.47;54.92;94473.97;5070618;28;20216;-75
2023/09/24 07:24:51;;;;;;;4.03;2.38;;;;;;;25.42;56.05;94468.16;5071088;28;20202;-76
2023/09/24 07:27:19;;;;;;;3.67;2.03;;;;;;;26.00;54.74;94468.53;5070676;28;20198;-75
2023/09/24 07:29:46;;;;;;;2.30;1.65;;;;;;;26.27;54.65;94460.75;5071195;28;20597;-77
2023/09/24 07:32:14;;;;;;;1.90;1.65;;;;;;;25.62;55.66;94470.94;5070661;28;20219;-75
2023/09/24 07:34:41;;;;;;;3.33;1.98;;;;;;;25.72;56.05;94458.81;5070098;28;20203;-76
2023/09/24 07:37:08;;;;;;;1.80;1.58;;;;;;;26.04;57.13;94461.69;5068448;28;20207;-75
2023/09/24 07:39:36;;;;;;;4.40;1.50;;;;;;;26.27;56.34;94460.75;5080470;28;20214;-76
2023/09/24 07:42:03;;;;;;;3.00;1.70;;;;;;;26.59;54.54;94459.25;5070662;28;20221;-76
2023/09/24 07:44:30;;;;;;;1.83;1.48;;;;;;;26.66;54.27;94459.84;5070833;28;20210;-77
2023/09/24 07:46:57;;;;;;;4.20;1.60;;;;;;;26.66;54.43;94454.28;5070448;28;20214;-76
2023/09/24 07:49:24;;;;;;;3.05;1.60;;;;;;;26.92;53.40;94467.13;5070303;28;20203;-78
2023/09/24 07:51:51;;;;;;;2.78;1.75;;;;;;;26.71;53.93;94462.09;5070231;28;20237;-79
2023/09/24 07:54:19;;;;;;;2.42;1.70;;;;;;;26.85;53.37;94450.63;5067458;28;20207;-76
2023/09/24 07:56:47;;;;;;;2.10;1.27;;;;;;;26.81;52.53;94452.72;5067231;28;20202;-75
2023/09/24 07:59:15;;;;;;;2.15;1.50;;;;;;;26.73;52.71;94451.34;5060322;28;20203;-76
2023/09/24 08:01:41;;;;;;;2.65;2.35;;;;;;;26.22;53.37;94449.41;5069073;28;20234;-77
2023/09/24 08:04:09;;;;;;;2.00;1.80;;;;;;;26.39;53.57;94451.00;5071022;28;20242;-76
2023/09/24 08:06:36;;;;;;;3.15;1.58;;;;;;;26.34;53.13;94443.19;5071991;28;20285;-75
2023/09/24 08:09:05;;;;;;;3.55;1.77;;;;;;;25.91;53.46;94438.59;5070218;28;20210;-75
2023/09/24 08:11:32;;;;;;;2.47;1.98;;;;;;;25.76;54.41;94437.34;5069673;28;20239;-76
2023/09/24 08:14:01;;;;;;;2.80;1.95;;;;;;;25.61;54.39;94436.06;5070445;28;20207;-77
2023/09/24 08:16:28;;;;;;;1.90;1.30;;;;;;;25.63;54.89;94434.44;5070034;28;20628;-77
2023/09/24 08:18:55;;;;;;;2.50;1.40;;;;;;;25.70;54.50;94439.81;5069970;28;20680;-78
2023/09/24 08:21:22;;;;;;;4.30;1.77;;;;;;;25.84;54.40;94433.19;5069795;28;20275;-77
2023/09/24 08:23:49;;;;;;;3.22;1.60;;;;;;;26.19;53.34;94426.84;5070268;28;20240;-76
2023/09/24 08:26:15;;;;;;;2.15;1.35;;;;;;;26.30;53.67;94420.25;5068042;28;20211;-79
2023/09/24 08:28:43;;;;;;;2.10;1.50;;;;;;;26.12;53.66;94415.88;5070083;28;20203;-75
2023/09/24 08:31:12;;;;;;;2.78;1.65;;;;;;;26.02;52.93;94422.47;5069699;28;20226;-76
2023/09/24 08:33:39;;;;;;;3.00;1.20;;;;;;;26.39;52.92;94423.22;5070441;28;20238;-75
2023/09/24 08:36:11;;;;;;;2.75;1.67;;;;;;;26.41;52.79;94420.78;5069679;28;20302;-76
2023/09/24 08:38:38;;;;;;;2.17;0.95;;;;;;;26.36;53.10;94418.53;5067572;28;20203;-78
2023/09/24 08:41:11;;;;;;;2.65;1.50;;;;;;;26.46;51.87;94417.50;5070894;28;20211;-79
2023/09/24 08:43:40;;;;;;;2.20;1.58;;;;;;;26.41;52.12;94426.34;5062500;28;20272;-78
2023/09/24 08:46:09;;;;;;;3.70;1.50;;;;;;;26.55;51.92;94412.09;5067568;28;20221;-77
2023/09/24 08:48:38;;;;;;;3.28;1.55;;;;;;;26.62;51.21;94403.59;5069683;28;20340;-77
2023/09/24 08:51:07;;;;;;;2.50;1.50;;;;;;;26.72;51.40;94415.63;5069536;28;20234;-76
2023/09/24 08:53:35;;;;;;;2.20;1.17;;;;;;;26.74;51.21;94405.66;5064370;28;20205;-77
2023/09/24 08:56:03;;;;;;;2.25;1.60;;;;;;;26.47;51.57;94403.16;5060194;28;20663;-77
2023/09/24 08:58:30;;;;;;;1.35;1.25;;;;;;;26.72;51.21;94416.41;5059751;28;20207;-77
2023/09/24 09:00:57;;;;;;;2.03;1.42;;;;;;;26.94;51.13;94410.31;5063610;28;20203;-77
2023/09/24 09:03:24;;;;;;;2.58;1.60;;;;;;;26.83;50.93;94405.78;5062388;28;20211;-76
2023/09/24 09:05:52;;;;;;;2.13;1.35;;;;;;;27.06;50.33;94392.94;5065054;28;20203;-76
2023/09/24 09:08:19;;;;;;;4.63;1.60;;;;;;;27.29;50.01;94401.00;5060781;28;20215;-75
2023/09/24 09:10:49;;;;;;;3.40;1.48;;;;;;;27.34;50.25;94397.66;5060606;28;20243;-74
2023/09/24 09:13:18;;;;;;;2.88;1.85;;;;;;;27.05;50.30;94391.38;5069292;28;20628;-75
2023/09/24 09:15:46;;;;;;;3.42;1.85;;;;;;;26.96;50.39;94388.41;5069559;28;20203;-75
2023/09/24 09:18:23;;;;;;;2.13;1.70;;;;;;;26.91;51.01;94392.50;5069441;28;20213;-75
2023/09/24 09:20:58;;;;;;;1.95;1.35;;;;;;;26.87;50.07;94392.59;5065194;28;20204;-77
2023/09/24 09:23:33;;;;;;;2.42;2.03;;;;;;;26.76;51.17;94396.88;5069164;28;20332;-75
2023/09/24 09:26:00;;;;;;;1.85;1.52;;;;;;;26.80;50.77;94401.09;5069387;28;20222;-77
2023/09/24 09:28:28;;;;;;;2.33;1.70;;;;;;;27.17;49.92;94398.97;5069603;28;20210;-76
2023/09/24 09:31:05;;;;;;;1.88;1.42;;;;;;;27.53;49.72;94387.59;5069967;28;20206;-77
2023/09/24 09:33:34;;;;;;;5.03;2.47;;;;;;;27.53;48.84;94399.50;5069785;28;20206;-73
2023/09/24 09:36:03;;;;;;;3.03;1.88;;;;;;;27.46;49.14;94383.03;5069211;28;20632;-72
2023/09/24 09:38:34;;;;;;;2.97;1.83;;;;;;;27.67;48.59;94391.97;5073127;28;20302;-78
2023/09/24 09:41:01;;;;;;;5.43;1.50;;;;;;;27.55;49.09;94385.94;5073341;28;20607;-79
2023/09/24 09:43:29;;;;;;;4.13;1.60;;;;;;;27.67;48.88;94392.75;5073369;28;20773;-74
2023/09/24 09:45:57;;;;;;;2.90;1.45;;;;;;;27.51;48.28;94396.38;5072660;28;20310;-75
2023/09/24 09:48:34;;;;;;;3.30;1.92;;;;;;;27.47;48.54;94392.16;5072281;28;20220;-74
2023/09/24 09:51:07;;;;;;;3.75;2.75;;;;;;;27.61;48.54;94400.09;5072689;28;20206;-72
2023/09/24 09:53:35;;;;;;;2.05;1.58;;;;;;;27.61;48.32;94400.09;5073359;28;20207;-77
2023/09/24 09:56:04;;;;;;;3.40;1.88;;;;;;;27.83;47.93;94403.81;5072428;28;20207;-76
2023/09/24 09:58:34;;;;;;;3.17;1.80;;;;;;;27.70;48.73;94403.03;5070372;28;20203;-73
2023/09/24 10:01:01;;;;;;;2.20;1.70;;;;;;;27.97;48.21;94402.59;5074780;28;20228;-74
2023/09/24 10:03:32;;;;;;;2.67;1.70;;;;;;;28.14;47.83;94409.63;5080815;28;20294;-76
2023/09/24 10:06:00;;;;;;;4.32;1.88;;;;;;;28.00;48.04;94404.50;5071795;28;20210;-74
2023/09/24 10:08:39;;;;;;;3.53;1.95;;;;;;;28.13;48.24;94402.50;5071692;28;20210;-75
2023/09/24 10:11:06;;;;;;;2.22;1.38;;;;;;;28.03;47.17;94403.59;5063692;28;20333;-72
2023/09/24 10:13:44;;;;;;;3.63;2.05;;;;;;;27.75;47.31;94398.88;5071458;28;20226;-72
2023/09/24 10:16:31;;;;;;;2.25;1.55;;;;;;;27.59;47.81;94400.56;5071560;28;20307;-73
2023/09/24 10:18:59;;;;;;;2.33;1.42;;;;;;;27.36;48.59;94389.66;5066218;28;20206;-72
2023/09/24 10:21:31;;;;;;;2.92;1.88;;;;;;;27.29;48.64;94395.44;5071225;28;20195;-73
2023/09/24 10:23:59;;;;;;;2.40;2.05;;;;;;;27.23;48.99;94402.75;5063671;28;20291;-72
2023/09/24 10:26:49;;;;;;;5.03;2.65;;;;;;;27.44;49.14;94391.03;5067701;28;20253;-74
2023/09/24 10:29:20;;;;;;;2.05;1.50;;;;;;;27.52;49.08;94388.81;5072129;28;20223;-72
2023/09/24 10:32:15;;;;;;;2.05;1.45;;;;;;;27.34;49.16;94386.53;5068408;28;20211;-72
2023/09/24 10:35:10;;;;;;;4.35;1.40;;;;;;;27.43;49.08;94389.47;5062566;28;20200;-71
2023/09/24 10:37:57;;;;;;;2.38;2.08;;;;;;;27.29;49.09;94397.44;5060437;28;20211;-72
2023/09/24 10:40:27;;;;;;;2.03;1.30;;;;;;;27.47;49.90;94381.78;5064221;28;20286;-71
2023/09/24 10:43:17;;;;;;;2.15;1.65;;;;;;;27.51;49.40;94379.69;5064378;28;20203;-73
2023/09/24 10:45:44;;;;;;;2.15;1.60;;;;;;;27.68;48.34;94382.41;5064204;28;20206;-73
2023/09/24 10:48:12;;;;;;;3.83;1.35;;;;;;;27.62;48.79;94387.72;5062230;28;20195;-73
2023/09/24 10:50:41;;;;;;;4.65;2.80;;;;;;;27.67;48.46;94375.28;5062491;28;20272;-72
2023/09/24 10:53:09;;;;;;;4.63;1.40;;;;;;;27.51;48.75;94371.34;5062847;28;20691;-74
2023/09/24 10:55:39;;;;;;;5.50;3.00;;;;;;;27.78;48.99;94375.72;5071497;28;20513;-73
2023/09/24 10:58:12;;;;;;;1.77;1.40;;;;;;;27.76;48.89;94367.03;5071115;28;20204;-74
2023/09/24 11:00:41;;;;;;;1.73;1.40;;;;;;;28.04;48.12;94371.72;5071682;28;20313;-77
2023/09/24 11:03:10;;;;;;;2.38;1.40;;;;;;;28.29;47.66;94370.97;5063096;28;20207;-75
2023/09/24 11:05:43;;;;;;;2.45;1.60;;;;;;;28.22;47.30;94362.81;5071265;28;20662;-73
2023/09/24 11:08:11;;;;;;;3.10;2.00;;;;;;;28.04;47.41;94371.72;5070762;28;20663;-75
2023/09/24 11:10:39;;;;;;;3.05;1.55;;;;;;;28.01;47.75;94364.28;5070814;28;20272;-75
2023/09/24 11:13:08;;;;;;;2.22;1.25;;;;;;;28.24;47.45;94361.16;5071075;28;20588;-75
2023/09/24 11:15:37;;;;;;;2.58;1.85;;;;;;;28.14;47.32;94370.63;5070774;28;20218;-75
2023/09/24 11:18:04;;;;;;;2.92;1.85;;;;;;;27.94;47.37;94362.47;5070340;28;20252;-73
2023/09/24 11:20:33;;;;;;;4.00;2.30;;;;;;;27.81;48.29;94363.72;5060544;28;20199;-75
2023/09/24 11:23:02;;;;;;;2.97;1.60;;;;;;;27.64;48.47;94365.03;5063057;28;20207;-75
2023/09/24 11:25:30;;;;;;;1.55;1.20;;;;;;;27.70;48.38;94364.03;5061778;28;20381;-74
2023/09/24 11:28:00;;;;;;;2.25;1.63;;;;;;;27.73;48.45;94362.38;5061848;28;20248;-73
2023/09/24 11:30:39;;;;;;;3.22;1.40;;;;;;;27.55;48.08;94362.88;5064637;28;20791;-74
2023/09/24 11:33:12;;;;;;;2.10;1.10;;;;;;;27.73;48.06;94379.09;5060377;28;20218;-73
2023/09/24 11:35:40;;;;;;;3.70;1.30;;;;;;;27.66;48.57;94365.38;5058827;28;20689;-74
2023/09/24 11:38:07;;;;;;;2.00;1.48;;;;;;;27.65;48.25;94367.38;5059812;28;20655;-74
2023/09/24 11:40:35;;;;;;;2.70;1.73;;;;;;;27.63;48.62;94369.03;5060227;28;20204;-73